createdAt,value
2019-03-04T00:00:43.986Z,69.70
2019-03-04T00:03:12.381Z,70.20
2019-03-04T00:05:40.609Z,70.00
2019-03-04T00:08:08.835Z,70.20
2019-03-04T00:10:37.046Z,70.30
2019-03-04T00:13:05.288Z,70.40
2019-03-04T00:15:33.546Z,69.50
2019-03-04T00:18:01.788Z,68.90
2019-03-04T00:20:30.001Z,68.10
2019-03-04T00:22:58.256Z,67.80
2019-03-04T00:25:26.469Z,67.50
2019-03-04T00:27:55.005Z,67.20
2019-03-04T00:30:23.309Z,66.90
2019-03-04T00:32:51.548Z,67.00
2019-03-04T00:35:19.771Z,66.70
2019-03-04T00:37:47.989Z,66.90
2019-03-04T00:40:18.895Z,66.60
2019-03-04T00:42:47.112Z,66.80
2019-03-04T00:45:15.321Z,66.30
2019-03-04T00:47:43.547Z,66.60
2019-03-04T00:50:13.811Z,66.40
2019-03-04T00:52:42.034Z,66.20
2019-03-04T00:55:11.078Z,66.30
2019-03-04T00:57:39.585Z,66.70
2019-03-04T01:00:17.536Z,67.10
2019-03-04T01:02:45.772Z,67.20
2019-03-04T01:05:13.979Z,67.70
2019-03-04T01:07:42.209Z,67.90
2019-03-04T01:10:12.665Z,68.20
2019-03-04T01:12:40.898Z,68.60
2019-03-04T01:15:11.660Z,68.90
2019-03-04T01:17:39.885Z,69.20
2019-03-04T01:20:11.189Z,69.70
2019-03-04T01:22:39.497Z,69.70
2019-03-04T01:25:10.257Z,69.80
2019-03-04T01:27:38.750Z,69.80
2019-03-04T01:30:15.261Z,69.90
2019-03-04T01:32:43.498Z,70.80
2019-03-04T01:35:11.733Z,70.00
2019-03-04T01:37:39.951Z,69.90
2019-03-04T01:40:14.143Z,69.90
2019-03-04T01:42:42.361Z,70.70
2019-03-04T01:45:12.747Z,69.90
2019-03-04T01:47:40.982Z,70.90
2019-03-04T01:50:12.110Z,70.40
2019-03-04T01:52:40.343Z,70.60
2019-03-04T01:55:10.727Z,70.90
2019-03-04T01:57:40.161Z,71.00
2019-03-04T02:00:13.877Z,70.80
2019-03-04T02:02:42.102Z,70.50
2019-03-04T02:05:10.345Z,71.50
2019-03-04T02:07:38.583Z,70.90
2019-03-04T02:10:14.957Z,69.90
2019-03-04T02:12:43.157Z,69.80
2019-03-04T02:15:13.721Z,70.00
2019-03-04T02:17:42.129Z,69.40
2019-03-04T02:20:12.288Z,69.40
2019-03-04T02:22:40.545Z,69.10
2019-03-04T02:25:11.630Z,68.60
2019-03-04T02:27:42.200Z,68.40
2019-03-04T02:30:16.482Z,68.40
2019-03-04T02:32:44.718Z,67.80
2019-03-04T02:35:12.952Z,67.50
2019-03-04T02:37:41.153Z,67.30
2019-03-04T02:40:09.411Z,67.20
2019-03-04T02:42:37.625Z,66.80
2019-03-04T02:45:09.116Z,66.50
2019-03-04T02:47:37.338Z,66.60
2019-03-04T02:50:06.957Z,66.70
2019-03-04T02:52:35.154Z,66.00
2019-03-04T02:55:04.613Z,65.20
2019-03-04T02:57:32.863Z,64.40
2019-03-04T03:00:01.098Z,63.60
2019-03-04T03:02:29.334Z,63.10
2019-03-04T03:04:57.541Z,62.60
2019-03-04T03:07:25.761Z,62.60
2019-03-04T03:09:53.991Z,62.50
2019-03-04T03:12:22.220Z,62.80
2019-03-04T03:14:50.442Z,63.40
2019-03-04T03:17:18.668Z,63.90
2019-03-04T03:19:46.897Z,64.70
2019-03-04T03:22:15.109Z,65.30
2019-03-04T03:24:43.329Z,65.90
2019-03-04T03:27:11.546Z,66.20
2019-03-04T03:29:39.806Z,67.00
2019-03-04T03:32:08.284Z,67.80
2019-03-04T03:34:36.599Z,68.40
2019-03-04T03:37:04.890Z,69.00
2019-03-04T03:39:33.438Z,68.90
2019-03-04T03:42:01.679Z,69.10
2019-03-04T03:44:29.992Z,68.90
2019-03-04T03:46:58.271Z,68.70
2019-03-04T03:49:26.491Z,67.80
2019-03-04T03:51:54.719Z,67.40
2019-03-04T03:54:23.110Z,67.00
2019-03-04T03:56:51.351Z,66.90
2019-03-04T03:59:19.568Z,66.20
2019-03-04T04:01:47.814Z,65.10
2019-03-04T04:04:16.020Z,64.80
2019-03-04T04:06:44.247Z,65.40
2019-03-04T04:09:12.463Z,65.50
2019-03-04T04:11:40.693Z,65.30
2019-03-04T04:14:08.912Z,63.90
2019-03-04T04:16:37.139Z,62.80
2019-03-04T04:19:05.464Z,62.60
2019-03-04T04:21:33.906Z,62.70
2019-03-04T04:24:02.268Z,62.50
2019-03-04T04:26:30.695Z,62.10
2019-03-04T04:29:02.225Z,61.70
2019-03-04T04:31:30.478Z,61.80
2019-03-04T04:33:58.696Z,61.10
2019-03-04T04:36:26.923Z,61.10
2019-03-04T04:38:55.139Z,60.80
2019-03-04T04:41:23.373Z,61.30
2019-03-04T04:43:51.602Z,61.60
2019-03-04T04:46:39.577Z,62.40
2019-03-04T04:49:07.809Z,62.70
2019-03-04T04:51:36.041Z,63.00
2019-03-04T04:54:04.261Z,63.50
2019-03-04T04:56:32.474Z,63.90
2019-03-04T04:59:00.715Z,64.40
2019-03-04T05:01:28.925Z,64.80
2019-03-04T05:03:58.430Z,65.00
2019-03-04T05:06:26.738Z,65.40
2019-03-04T05:08:55.102Z,65.80
2019-03-04T05:11:23.354Z,66.00
2019-03-04T05:13:51.610Z,66.10
2019-03-04T05:16:19.821Z,66.50
2019-03-04T05:18:48.048Z,66.50
2019-03-04T05:21:16.289Z,66.50
2019-03-04T05:23:44.537Z,66.60
2019-03-04T05:26:12.750Z,66.90
2019-03-04T05:28:40.985Z,66.60
2019-03-04T05:31:09.848Z,66.00
2019-03-04T05:33:38.378Z,66.20
2019-03-04T05:36:06.878Z,66.30
2019-03-04T05:38:35.119Z,66.10
2019-03-04T05:41:03.509Z,65.60
2019-03-04T05:43:32.421Z,65.70
2019-03-04T05:46:00.721Z,65.40
2019-03-04T05:48:29.973Z,65.10
2019-03-04T05:50:59.647Z,64.10
2019-03-04T05:53:28.224Z,64.10
2019-03-04T05:55:59.656Z,63.20
2019-03-04T05:58:28.109Z,62.90
2019-03-04T06:01:16.840Z,62.80
2019-03-04T06:03:47.542Z,61.40
2019-03-04T06:06:17.692Z,61.40
2019-03-04T06:08:46.050Z,61.20
2019-03-04T06:11:14.298Z,60.70
2019-03-04T06:13:42.531Z,60.40
2019-03-04T06:16:10.837Z,60.10
2019-03-04T06:18:39.104Z,60.30
2019-03-04T06:21:07.422Z,60.40
2019-03-04T06:23:35.904Z,62.70
2019-03-04T06:26:04.164Z,67.70
2019-03-04T06:28:34.927Z,70.40
2019-03-04T06:31:03.418Z,71.80
2019-03-04T06:33:31.620Z,72.80
2019-03-04T06:35:59.851Z,73.10
2019-03-04T06:38:28.405Z,73.30
2019-03-04T06:41:01.785Z,73.30
2019-03-04T06:43:30.092Z,73.60
2019-03-04T06:45:58.305Z,75.80
2019-03-04T06:48:26.521Z,82.20
2019-03-04T06:50:55.886Z,83.10
2019-03-04T06:53:36.325Z,85.20
2019-03-04T06:56:26.082Z,85.80
2019-03-04T06:59:15.425Z,84.20
2019-03-04T07:02:21.447Z,83.00
2019-03-04T07:05:07.970Z,80.60
2019-03-04T07:07:36.195Z,82.10
2019-03-04T07:10:07.543Z,83.20
2019-03-04T07:12:35.837Z,82.70
2019-03-04T07:15:05.837Z,83.30
2019-03-04T07:17:34.055Z,83.10
2019-03-04T07:20:11.452Z,82.90
2019-03-04T07:22:39.684Z,83.40
2019-03-04T07:25:09.418Z,79.00
2019-03-04T07:27:37.665Z,81.10
2019-03-04T07:30:20.154Z,77.00
2019-03-04T07:32:48.365Z,75.10
2019-03-04T07:35:16.923Z,75.10
2019-03-04T07:37:45.144Z,74.50
2019-03-04T07:40:18.687Z,72.10
2019-03-04T07:42:46.926Z,66.30
2019-03-04T07:45:15.146Z,66.00
2019-03-04T07:47:43.387Z,68.70
2019-03-04T07:50:11.607Z,69.30
2019-03-04T07:52:40.174Z,68.60
2019-03-04T07:55:08.651Z,70.20
2019-03-04T07:57:36.899Z,68.70
2019-03-04T08:00:08.399Z,68.00
2019-03-04T08:02:36.627Z,67.50
2019-03-04T08:05:08.407Z,67.50
2019-03-04T08:07:51.794Z,66.70
2019-03-04T08:10:58.065Z,65.30
2019-03-04T08:13:29.590Z,64.30
2019-03-04T08:15:58.082Z,63.80
2019-03-04T08:18:26.344Z,63.70
2019-03-04T08:20:54.559Z,64.00
2019-03-04T08:23:22.829Z,63.60
2019-03-04T08:25:51.447Z,63.80
2019-03-04T08:28:19.666Z,63.80
2019-03-04T08:30:47.892Z,64.10
2019-03-04T08:33:16.112Z,64.40
2019-03-04T08:35:44.386Z,64.30
2019-03-04T08:38:12.656Z,62.40
2019-03-04T08:40:40.882Z,58.60
2019-03-04T08:43:09.110Z,57.70
2019-03-04T08:45:37.325Z,56.80
2019-03-04T08:48:05.570Z,55.70
2019-03-04T08:50:33.794Z,53.30
2019-03-04T08:53:02.028Z,53.70
2019-03-04T08:55:30.558Z,54.90
2019-03-04T08:57:58.912Z,54.00
2019-03-04T09:00:29.622Z,54.20
2019-03-04T09:02:57.837Z,55.20
2019-03-04T09:05:26.058Z,55.60
2019-03-04T09:07:54.299Z,56.00
2019-03-04T09:10:24.574Z,56.10
2019-03-04T09:12:52.791Z,56.10
2019-03-04T09:15:21.078Z,56.40
2019-03-04T09:17:49.486Z,56.90
2019-03-04T09:20:18.685Z,56.20
2019-03-04T09:22:46.916Z,56.60
2019-03-04T09:25:30.164Z,56.30
2019-03-04T09:27:52.561Z,56.30
2019-03-04T09:30:20.802Z,56.50
2019-03-04T09:32:49.160Z,56.90
2019-03-04T09:35:17.948Z,57.10
2019-03-04T09:37:46.157Z,56.90
2019-03-04T09:40:17.480Z,56.40
2019-03-04T09:42:47.688Z,56.20
2019-03-04T09:45:16.376Z,56.00
2019-03-04T09:47:44.760Z,56.30
2019-03-04T09:50:18.427Z,55.90
2019-03-04T09:52:46.660Z,56.60
2019-03-04T09:55:16.243Z,56.80
2019-03-04T09:57:44.518Z,57.20
2019-03-04T10:00:36.022Z,57.20
2019-03-04T10:03:39.252Z,57.10
2019-03-04T10:06:36.023Z,56.90
2019-03-04T10:09:23.861Z,55.20
2019-03-04T10:12:16.253Z,53.30
2019-03-04T10:14:56.370Z,52.70
2019-03-04T10:17:47.407Z,54.30
2019-03-04T10:20:33.597Z,54.90
2019-03-04T10:23:07.617Z,54.00
2019-03-04T10:26:04.506Z,54.60
2019-03-04T10:28:47.614Z,55.10
2019-03-04T10:31:35.501Z,55.00
2019-03-04T10:34:29.104Z,55.40
2019-03-04T10:37:03.273Z,55.20
2019-03-04T10:39:52.576Z,55.80
2019-03-04T10:42:35.915Z,55.50
2019-03-04T10:45:12.942Z,56.00
2019-03-04T10:47:41.185Z,56.50
2019-03-04T10:50:10.433Z,56.70
2019-03-04T10:52:38.658Z,56.60
2019-03-04T10:55:10.400Z,56.50
2019-03-04T10:57:38.634Z,56.60
2019-03-04T11:00:19.286Z,56.80
2019-03-04T11:02:47.529Z,57.00
2019-03-04T11:05:15.751Z,57.10
2019-03-04T11:07:43.974Z,57.40
2019-03-04T11:10:13.877Z,57.60
2019-03-04T11:12:42.112Z,57.40
2019-03-04T11:15:19.501Z,57.20
2019-03-04T11:17:47.741Z,57.50
2019-03-04T11:20:16.241Z,57.70
2019-03-04T11:22:44.459Z,58.00
2019-03-04T11:25:12.705Z,58.10
2019-03-04T11:27:40.994Z,58.90
2019-03-04T11:30:26.829Z,59.50
2019-03-04T11:32:55.064Z,59.80
2019-03-04T11:35:23.301Z,61.30
2019-03-04T11:37:51.578Z,61.00
2019-03-04T11:40:32.933Z,61.60
2019-03-04T11:43:01.227Z,62.70
2019-03-04T11:45:29.458Z,62.90
2019-03-04T11:47:57.698Z,69.90
2019-03-04T11:50:25.938Z,77.20
2019-03-04T11:52:54.176Z,82.30
2019-03-04T11:55:28.645Z,87.70
2019-03-04T11:57:56.876Z,89.20
2019-03-04T12:00:43.298Z,90.10
2019-03-04T12:03:11.524Z,90.30
2019-03-04T12:05:39.730Z,90.60
2019-03-04T12:08:07.970Z,90.90
2019-03-04T12:10:36.167Z,91.30
2019-03-04T12:13:04.387Z,91.50
2019-03-04T12:15:32.598Z,91.20
2019-03-04T12:18:04.519Z,91.40
2019-03-04T12:20:32.058Z,91.60
2019-03-04T12:23:00.353Z,91.80
2019-03-04T12:25:28.566Z,91.60
2019-03-04T12:27:56.803Z,91.70
2019-03-04T12:30:26.069Z,91.30
2019-03-04T12:32:54.466Z,91.50
2019-03-04T12:35:22.673Z,91.50
2019-03-04T12:37:50.919Z,91.30
2019-03-04T12:40:20.292Z,91.10
2019-03-04T12:42:48.755Z,90.50
2019-03-04T12:45:18.226Z,90.90
2019-03-04T12:47:46.482Z,90.70
2019-03-04T12:50:26.281Z,90.60
2019-03-04T12:52:55.058Z,88.30
2019-03-04T12:55:23.282Z,85.60
2019-03-04T12:57:51.498Z,83.50
2019-03-04T13:00:30.710Z,84.40
2019-03-04T13:02:59.261Z,82.90
2019-03-04T13:05:27.509Z,81.70
2019-03-04T13:07:55.718Z,80.10
2019-03-04T13:10:23.940Z,78.40
2019-03-04T13:12:52.167Z,78.70
2019-03-04T13:15:26.005Z,79.30
2019-03-04T13:17:54.213Z,79.20
2019-03-04T13:20:29.548Z,78.20
2019-03-04T13:22:57.793Z,77.90
2019-03-04T13:25:26.012Z,79.20
2019-03-04T13:27:54.620Z,77.70
2019-03-04T13:30:26.893Z,76.90
2019-03-04T13:32:55.169Z,76.30
2019-03-04T13:35:33.351Z,76.90
2019-03-04T13:38:01.578Z,76.30
2019-03-04T13:40:30.909Z,75.30
2019-03-04T13:42:59.105Z,76.40
2019-03-04T13:45:28.259Z,76.60
2019-03-04T13:47:56.640Z,76.70
2019-03-04T13:50:26.871Z,76.30
2019-03-04T13:52:55.969Z,76.30
2019-03-04T13:55:24.196Z,74.30
2019-03-04T13:57:52.477Z,73.80
2019-03-04T14:00:32.453Z,74.50
2019-03-04T14:03:01.141Z,74.00
2019-03-04T14:05:29.788Z,74.00
2019-03-04T14:07:58.553Z,74.50
2019-03-04T14:10:40.178Z,73.90
2019-03-04T14:13:08.399Z,73.00
2019-03-04T14:15:44.134Z,73.10
2019-03-04T14:18:12.352Z,73.70
2019-03-04T14:20:40.618Z,72.20
2019-03-04T14:23:09.238Z,72.30
2019-03-04T14:25:37.435Z,72.90
2019-03-04T14:28:05.752Z,72.70
2019-03-04T14:30:34.059Z,71.60
2019-03-04T14:33:02.332Z,71.50
2019-03-04T14:35:30.723Z,71.30
2019-03-04T14:37:59.075Z,69.60
2019-03-04T14:40:27.390Z,69.60
2019-03-04T14:42:55.673Z,66.60
2019-03-04T14:45:25.996Z,65.40
2019-03-04T14:47:54.590Z,65.10
2019-03-04T14:50:22.843Z,65.80
2019-03-04T14:52:51.143Z,64.40
2019-03-04T14:55:25.582Z,63.90
2019-03-04T14:57:54.324Z,62.60
2019-03-04T15:00:29.381Z,62.60
2019-03-04T15:02:57.602Z,62.90
2019-03-04T15:05:26.246Z,61.90
2019-03-04T15:07:55.779Z,61.70
2019-03-04T15:10:24.194Z,61.50
2019-03-04T15:12:52.422Z,59.20
2019-03-04T15:15:26.063Z,58.80
2019-03-04T15:17:54.403Z,59.00
2019-03-04T15:20:24.494Z,58.90
2019-03-04T15:22:52.728Z,59.10
2019-03-04T15:25:24.820Z,59.00
2019-03-04T15:27:53.159Z,59.10
2019-03-04T15:30:21.431Z,58.40
2019-03-04T15:32:49.646Z,58.30
2019-03-04T15:35:17.914Z,57.70
2019-03-04T15:37:46.282Z,57.90
2019-03-04T15:40:15.158Z,57.00
2019-03-04T15:42:43.401Z,56.80
2019-03-04T15:45:13.358Z,57.60
2019-03-04T15:47:43.095Z,58.30
2019-03-04T15:50:11.932Z,58.70
2019-03-04T15:52:40.171Z,59.60
2019-03-04T15:55:10.684Z,60.70
2019-03-04T15:57:38.968Z,60.50
2019-03-04T16:00:17.278Z,60.20
2019-03-04T16:02:45.661Z,60.40
2019-03-04T16:05:15.259Z,60.20
2019-03-04T16:07:43.532Z,59.80
2019-03-04T16:10:20.079Z,59.10
2019-03-04T16:12:48.309Z,59.70
2019-03-04T16:15:18.203Z,59.50
2019-03-04T16:17:46.410Z,59.50
2019-03-04T16:20:22.481Z,59.60
2019-03-04T16:22:52.545Z,60.10
2019-03-04T16:25:20.781Z,59.60
2019-03-04T16:27:49.002Z,59.60
2019-03-04T16:30:22.058Z,59.70
2019-03-04T16:32:50.283Z,59.70
2019-03-04T16:35:18.502Z,59.60
2019-03-04T16:37:46.718Z,60.90
2019-03-04T16:40:19.323Z,58.70
2019-03-04T16:42:47.549Z,58.40
2019-03-04T16:45:19.655Z,57.90
2019-03-04T16:47:47.894Z,58.10
2019-03-04T16:50:21.111Z,57.90
2019-03-04T16:52:55.226Z,57.60
2019-03-04T16:55:23.467Z,58.20
2019-03-04T16:57:51.690Z,58.10
2019-03-04T17:00:21.459Z,57.70
2019-03-04T17:02:50.610Z,58.20
2019-03-04T17:05:20.538Z,57.70
2019-03-04T17:07:50.805Z,58.40
2019-03-04T17:10:21.972Z,58.40
2019-03-04T17:12:50.188Z,58.40
2019-03-04T17:15:22.886Z,58.70
2019-03-04T17:17:51.408Z,58.50
2019-03-04T17:20:20.001Z,58.50
2019-03-04T17:22:48.237Z,58.40
2019-03-04T17:25:21.761Z,58.40
2019-03-04T17:27:50.031Z,58.60
2019-03-04T17:30:20.539Z,58.70
2019-03-04T17:32:56.527Z,58.60
2019-03-04T17:35:24.934Z,58.50
2019-03-04T17:37:53.270Z,58.40
2019-03-04T17:40:28.525Z,58.60
2019-03-04T17:42:56.737Z,58.10
2019-03-04T17:45:26.300Z,58.10
2019-03-04T17:47:54.524Z,57.90
2019-03-04T17:50:34.094Z,58.20
2019-03-04T17:53:04.264Z,58.20
2019-03-04T17:55:32.465Z,58.20
2019-03-04T17:58:00.710Z,57.90
2019-03-04T18:00:29.306Z,57.90
2019-03-04T18:02:57.552Z,58.00
2019-03-04T18:05:25.761Z,57.70
2019-03-04T18:07:53.993Z,58.00
2019-03-04T18:10:22.488Z,58.00
2019-03-04T18:12:53.122Z,58.20
2019-03-04T18:15:25.465Z,58.20
2019-03-04T18:17:53.697Z,58.10
2019-03-04T18:20:21.925Z,58.30
2019-03-04T18:22:50.147Z,58.50
2019-03-04T18:25:27.751Z,59.30
2019-03-04T18:28:08.465Z,58.70
2019-03-04T18:30:42.418Z,58.70
2019-03-04T18:33:42.698Z,59.20
2019-03-04T18:36:14.169Z,59.70
2019-03-04T18:39:11.366Z,60.40
2019-03-04T18:41:45.578Z,59.60
2019-03-04T18:44:41.156Z,59.70
2019-03-04T18:47:47.494Z,60.20
2019-03-04T18:50:15.711Z,60.70
2019-03-04T18:52:43.923Z,60.90
2019-03-04T18:55:12.137Z,61.10
2019-03-04T18:57:40.358Z,61.40
2019-03-04T19:00:14.322Z,61.30
2019-03-04T19:02:42.912Z,61.60
2019-03-04T19:05:11.720Z,61.60
2019-03-04T19:07:59.377Z,61.50
2019-03-04T19:10:27.627Z,61.80
2019-03-04T19:12:55.860Z,62.50
2019-03-04T19:15:24.080Z,62.50
2019-03-04T19:17:52.347Z,62.60
2019-03-04T19:20:22.243Z,62.80
2019-03-04T19:22:50.464Z,63.10
2019-03-04T19:25:18.692Z,63.30
2019-03-04T19:27:46.965Z,63.70
2019-03-04T19:30:15.744Z,63.80
2019-03-04T19:32:43.957Z,63.80
2019-03-04T19:35:13.848Z,63.90
2019-03-04T19:37:42.061Z,64.00
2019-03-04T19:40:12.342Z,64.20
2019-03-04T19:42:40.590Z,64.70
2019-03-04T19:45:14.580Z,65.00
2019-03-04T19:47:42.861Z,65.10
2019-03-04T19:50:11.457Z,65.40
2019-03-04T19:52:39.705Z,65.60
2019-03-04T19:55:17.703Z,66.00
2019-03-04T19:57:46.211Z,66.10
2019-03-04T20:00:24.770Z,66.60
2019-03-04T20:02:52.868Z,66.90
2019-03-04T20:05:22.116Z,67.20
2019-03-04T20:07:50.321Z,67.00
2019-03-04T20:10:18.628Z,67.10
2019-03-04T20:12:47.292Z,67.40
2019-03-04T20:15:35.641Z,67.60
2019-03-04T20:18:03.857Z,67.70
2019-03-04T20:20:32.465Z,67.60
2019-03-04T20:23:00.702Z,67.40
2019-03-04T20:25:29.314Z,67.40
2019-03-04T20:27:57.527Z,67.30
2019-03-04T20:30:25.809Z,67.00
2019-03-04T20:32:54.110Z,66.90
2019-03-04T20:35:22.335Z,66.60
2019-03-04T20:37:56.472Z,66.70
2019-03-04T20:40:24.688Z,66.60
2019-03-04T20:42:52.900Z,66.40
2019-03-04T20:45:22.776Z,65.90
2019-03-04T20:47:51.316Z,66.70
2019-03-04T20:50:23.847Z,66.20
2019-03-04T20:52:52.063Z,67.50
2019-03-04T20:55:20.581Z,69.80
2019-03-04T20:57:48.795Z,73.30
2019-03-04T21:00:24.094Z,76.40
2019-03-04T21:02:52.306Z,76.80
2019-03-04T21:05:20.585Z,77.30
2019-03-04T21:07:48.938Z,78.40
2019-03-04T21:10:17.156Z,80.30
2019-03-04T21:12:46.057Z,82.20
2019-03-04T21:15:15.054Z,82.50
2019-03-04T21:17:43.268Z,83.60
2019-03-04T21:20:14.774Z,84.10
2019-03-04T21:22:42.965Z,84.10
2019-03-04T21:25:33.830Z,84.00
2019-03-04T21:28:14.022Z,84.10
2019-03-04T21:31:06.761Z,84.30
2019-03-04T21:33:55.912Z,84.60
2019-03-04T21:36:43.886Z,84.50
2019-03-04T21:39:14.655Z,84.50
2019-03-04T21:41:46.232Z,84.20
2019-03-04T21:44:22.364Z,84.40
2019-03-04T21:46:56.091Z,84.50
2019-03-04T21:49:25.411Z,84.00
2019-03-04T21:52:19.722Z,84.20
2019-03-04T21:54:42.406Z,83.60
2019-03-04T21:57:13.908Z,83.10
2019-03-04T21:59:42.199Z,83.00
2019-03-04T22:02:19.524Z,82.20
2019-03-04T22:04:47.742Z,81.70
2019-03-04T22:07:16.025Z,81.10
2019-03-04T22:09:44.254Z,80.80
2019-03-04T22:12:13.931Z,80.60
2019-03-04T22:14:42.311Z,80.90
2019-03-04T22:17:10.525Z,80.40
2019-03-04T22:19:38.745Z,79.60
2019-03-04T22:22:06.964Z,78.30
2019-03-04T22:24:35.703Z,77.80
2019-03-04T22:27:03.944Z,77.10
2019-03-04T22:29:32.398Z,77.20
2019-03-04T22:32:00.924Z,75.30
2019-03-04T22:34:29.145Z,74.50
2019-03-04T22:36:57.390Z,74.60
2019-03-04T22:39:25.617Z,73.80
2019-03-04T22:41:53.818Z,73.60
2019-03-04T22:44:22.045Z,72.90
2019-03-04T22:46:50.306Z,73.00
2019-03-04T22:49:18.542Z,73.10
2019-03-04T22:51:47.117Z,72.90
2019-03-04T22:54:15.378Z,72.90
2019-03-04T22:56:43.690Z,72.40
2019-03-04T22:59:12.091Z,72.50
2019-03-04T23:01:43.693Z,72.00
2019-03-04T23:04:14.726Z,71.20
2019-03-04T23:07:00.993Z,70.50
2019-03-04T23:09:41.647Z,70.90
2019-03-04T23:12:21.313Z,70.20
2019-03-04T23:14:49.722Z,70.50
2019-03-04T23:17:18.288Z,70.10
2019-03-04T23:19:46.613Z,70.50
2019-03-04T23:22:14.825Z,70.00
2019-03-04T23:24:43.062Z,69.90
2019-03-04T23:27:11.639Z,69.60
2019-03-04T23:29:39.866Z,69.80
2019-03-04T23:32:08.106Z,70.10
2019-03-04T23:34:36.399Z,70.00
2019-03-04T23:37:04.778Z,70.10
2019-03-04T23:39:33.616Z,70.00
2019-03-04T23:42:03.402Z,69.90
2019-03-04T23:44:33.017Z,69.50
2019-03-04T23:47:02.745Z,70.40
2019-03-04T23:49:31.874Z,69.40
2019-03-04T23:52:00.561Z,69.40
2019-03-04T23:54:29.127Z,69.80
2019-03-04T23:56:57.419Z,70.00
2019-03-04T23:59:25.659Z,70.10
